sensor_id;sensor_type;location;lat;lon;timestamp;P1;durP1;ratioP1;P2;durP2;ratioP2
22046;SDS011;11187;49.412;20.956;2022-09-17T00:00:02;22.27;;;20.15;;
22046;SDS011;11187;49.412;20.956;2022-09-17T00:02:36;21.08;;;19.38;;
22046;SDS011;11187;49.412;20.956;2022-09-17T00:05:25;22.60;;;20.58;;
22046;SDS011;11187;49.412;20.956;2022-09-17T00:08:00;19.73;;;17.98;;
22046;SDS011;11187;49.412;20.956;2022-09-17T00:10:47;20.95;;;19.25;;
22046;SDS011;11187;49.412;20.956;2022-09-17T00:13:20;20.83;;;19.25;;
22046;SDS011;11187;49.412;20.956;2022-09-17T00:16:08;20.42;;;18.73;;
22046;SDS011;11187;49.412;20.956;2022-09-17T00:18:44;20.15;;;18.50;;
22046;SDS011;11187;49.412;20.956;2022-09-17T00:21:31;20.02;;;18.05;;
22046;SDS011;11187;49.412;20.956;2022-09-17T00:24:05;20.40;;;18.60;;
22046;SDS011;11187;49.412;20.956;2022-09-17T00:26:59;19.40;;;17.73;;
22046;SDS011;11187;49.412;20.956;2022-09-17T00:29:53;21.45;;;19.65;;
22046;SDS011;11187;49.412;20.956;2022-09-17T00:32:47;22.20;;;20.23;;
22046;SDS011;11187;49.412;20.956;2022-09-17T00:35:43;23.13;;;21.08;;
22046;SDS011;11187;49.412;20.956;2022-09-17T00:38:37;20.38;;;18.67;;
22046;SDS011;11187;49.412;20.956;2022-09-17T00:41:32;20.33;;;18.60;;
22046;SDS011;11187;49.412;20.956;2022-09-17T00:47:45;19.35;;;17.85;;
22046;SDS011;11187;49.412;20.956;2022-09-17T00:50:43;20.80;;;18.95;;
22046;SDS011;11187;49.412;20.956;2022-09-17T00:53:17;21.27;;;19.58;;
22046;SDS011;11187;49.412;20.956;2022-09-17T00:56:25;20.10;;;18.42;;
22046;SDS011;11187;49.412;20.956;2022-09-17T00:59:21;19.63;;;17.90;;
22046;SDS011;11187;49.412;20.956;2022-09-17T01:01:55;20.10;;;18.60;;
22046;SDS011;11187;49.412;20.956;2022-09-17T01:04:42;20.83;;;19.13;;
22046;SDS011;11187;49.412;20.956;2022-09-17T01:22:33;21.27;;;19.67;;
22046;SDS011;11187;49.412;20.956;2022-09-17T01:38:33;19.25;;;17.70;;
22046;SDS011;11187;49.412;20.956;2022-09-17T01:41:21;20.17;;;18.45;;
22046;SDS011;11187;49.412;20.956;2022-09-17T01:44:27;21.58;;;19.95;;
22046;SDS011;11187;49.412;20.956;2022-09-17T01:47:22;21.58;;;19.90;;
22046;SDS011;11187;49.412;20.956;2022-09-17T01:50:39;20.27;;;18.88;;
22046;SDS011;11187;49.412;20.956;2022-09-17T01:56:57;21.08;;;19.25;;
22046;SDS011;11187;49.412;20.956;2022-09-17T01:59:56;19.73;;;18.27;;
22046;SDS011;11187;49.412;20.956;2022-09-17T02:03:11;20.30;;;18.70;;
22046;SDS011;11187;49.412;20.956;2022-09-17T02:05:55;19.60;;;18.08;;
22046;SDS011;11187;49.412;20.956;2022-09-17T02:08:50;18.33;;;16.83;;
22046;SDS011;11187;49.412;20.956;2022-09-17T02:11:28;20.00;;;18.50;;
22046;SDS011;11187;49.412;20.956;2022-09-17T02:14:19;20.85;;;19.23;;
22046;SDS011;11187;49.412;20.956;2022-09-17T02:16:59;20.20;;;18.38;;
22046;SDS011;11187;49.412;20.956;2022-09-17T02:19:59;19.25;;;17.77;;
22046;SDS011;11187;49.412;20.956;2022-09-17T02:22:56;20.77;;;19.08;;
22046;SDS011;11187;49.412;20.956;2022-09-17T02:25:38;21.25;;;19.65;;
22046;SDS011;11187;49.412;20.956;2022-09-17T02:28:40;18.98;;;17.48;;
22046;SDS011;11187;49.412;20.956;2022-09-17T02:31:13;19.30;;;17.55;;
22046;SDS011;11187;49.412;20.956;2022-09-17T02:34:00;19.35;;;17.75;;
22046;SDS011;11187;49.412;20.956;2022-09-17T02:36:37;20.23;;;18.73;;
22046;SDS011;11187;49.412;20.956;2022-09-17T02:39:24;22.38;;;20.48;;
22046;SDS011;11187;49.412;20.956;2022-09-17T02:45:18;20.80;;;19.23;;
22046;SDS011;11187;49.412;20.956;2022-09-17T02:51:26;21.63;;;19.88;;
22046;SDS011;11187;49.412;20.956;2022-09-17T02:57:19;18.65;;;17.35;;
22046;SDS011;11187;49.412;20.956;2022-09-17T03:00:13;21.02;;;19.50;;
22046;SDS011;11187;49.412;20.956;2022-09-17T03:02:52;20.65;;;19.13;;
22046;SDS011;11187;49.412;20.956;2022-09-17T03:05:51;21.33;;;19.75;;
22046;SDS011;11187;49.412;20.956;2022-09-17T03:08:46;19.40;;;17.70;;
22046;SDS011;11187;49.412;20.956;2022-09-17T03:11:19;20.10;;;18.67;;
22046;SDS011;11187;49.412;20.956;2022-09-17T03:14:15;20.77;;;19.08;;
22046;SDS011;11187;49.412;20.956;2022-09-17T03:16:48;20.52;;;18.60;;
22046;SDS011;11187;49.412;20.956;2022-09-17T03:19:35;20.60;;;18.90;;
22046;SDS011;11187;49.412;20.956;2022-09-17T03:22:08;19.88;;;18.55;;
22046;SDS011;11187;49.412;20.956;2022-09-17T03:24:55;20.65;;;19.15;;
22046;SDS011;11187;49.412;20.956;2022-09-17T03:27:28;21.10;;;19.52;;
22046;SDS011;11187;49.412;20.956;2022-09-17T03:30:22;20.02;;;18.23;;
22046;SDS011;11187;49.412;20.956;2022-09-17T03:33:16;20.00;;;18.60;;
22046;SDS011;11187;49.412;20.956;2022-09-17T03:35:49;21.85;;;20.25;;
22046;SDS011;11187;49.412;20.956;2022-09-17T03:38:43;20.50;;;19.10;;
22046;SDS011;11187;49.412;20.956;2022-09-17T03:41:39;21.50;;;19.60;;
22046;SDS011;11187;49.412;20.956;2022-09-17T03:44:35;20.02;;;18.33;;
22046;SDS011;11187;49.412;20.956;2022-09-17T03:47:31;19.35;;;17.88;;
22046;SDS011;11187;49.412;20.956;2022-09-17T03:50:04;20.65;;;18.52;;
22046;SDS011;11187;49.412;20.956;2022-09-17T03:52:59;19.92;;;18.33;;
22046;SDS011;11187;49.412;20.956;2022-09-17T03:55:32;18.83;;;17.55;;
22046;SDS011;11187;49.412;20.956;2022-09-17T03:58:19;19.80;;;18.40;;
22046;SDS011;11187;49.412;20.956;2022-09-17T04:00:52;18.77;;;17.48;;
22046;SDS011;11187;49.412;20.956;2022-09-17T04:03:39;18.98;;;17.65;;
22046;SDS011;11187;49.412;20.956;2022-09-17T04:06:12;19.42;;;18.08;;
22046;SDS011;11187;49.412;20.956;2022-09-17T04:09:06;19.27;;;17.63;;
22046;SDS011;11187;49.412;20.956;2022-09-17T04:11:40;18.20;;;16.92;;
22046;SDS011;11187;49.412;20.956;2022-09-17T04:14:27;17.98;;;16.75;;
22046;SDS011;11187;49.412;20.956;2022-09-17T04:17:00;18.67;;;17.15;;
22046;SDS011;11187;49.412;20.956;2022-09-17T04:19:54;19.73;;;18.20;;
22046;SDS011;11187;49.412;20.956;2022-09-17T04:22:27;17.13;;;15.93;;
22046;SDS011;11187;49.412;20.956;2022-09-17T04:25:23;17.00;;;15.60;;
22046;SDS011;11187;49.412;20.956;2022-09-17T04:28:17;17.67;;;16.27;;
22046;SDS011;11187;49.412;20.956;2022-09-17T04:31:13;17.20;;;16.00;;
22046;SDS011;11187;49.412;20.956;2022-09-17T04:34:08;16.15;;;14.95;;
22046;SDS011;11187;49.412;20.956;2022-09-17T04:36:41;16.52;;;15.27;;
22046;SDS011;11187;49.412;20.956;2022-09-17T04:39:35;18.58;;;16.77;;
22046;SDS011;11187;49.412;20.956;2022-09-17T04:42:09;18.23;;;16.73;;
22046;SDS011;11187;49.412;20.956;2022-09-17T04:45:03;17.23;;;15.93;;
22046;SDS011;11187;49.412;20.956;2022-09-17T04:47:39;19.08;;;17.20;;
22046;SDS011;11187;49.412;20.956;2022-09-17T04:50:33;17.05;;;15.30;;
22046;SDS011;11187;49.412;20.956;2022-09-17T04:53:06;16.17;;;14.77;;
22046;SDS011;11187;49.412;20.956;2022-09-17T04:56:00;16.60;;;15.23;;
22046;SDS011;11187;49.412;20.956;2022-09-17T04:58:54;16.58;;;15.48;;
22046;SDS011;11187;49.412;20.956;2022-09-17T05:01:27;15.85;;;14.65;;
22046;SDS011;11187;49.412;20.956;2022-09-17T05:04:21;15.55;;;14.45;;
22046;SDS011;11187;49.412;20.956;2022-09-17T05:06:54;16.80;;;15.18;;
22046;SDS011;11187;49.412;20.956;2022-09-17T05:09:41;14.65;;;13.50;;
22046;SDS011;11187;49.412;20.956;2022-09-17T05:12:14;16.15;;;14.85;;
22046;SDS011;11187;49.412;20.956;2022-09-17T05:15:01;16.98;;;15.75;;
22046;SDS011;11187;49.412;20.956;2022-09-17T05:17:35;17.48;;;16.08;;
22046;SDS011;11187;49.412;20.956;2022-09-17T05:20:22;15.57;;;14.48;;
22046;SDS011;11187;49.412;20.956;2022-09-17T05:22:55;18.38;;;16.88;;
22046;SDS011;11187;49.412;20.956;2022-09-17T05:25:42;17.95;;;16.33;;
22046;SDS011;11187;49.412;20.956;2022-09-17T05:28:15;18.85;;;17.45;;
22046;SDS011;11187;49.412;20.956;2022-09-17T05:31:02;21.58;;;20.08;;
22046;SDS011;11187;49.412;20.956;2022-09-17T05:33:56;19.33;;;17.90;;
22046;SDS011;11187;49.412;20.956;2022-09-17T05:36:51;22.55;;;20.60;;
22046;SDS011;11187;49.412;20.956;2022-09-17T05:39:24;19.10;;;17.65;;
22046;SDS011;11187;49.412;20.956;2022-09-17T05:42:11;21.45;;;19.98;;
22046;SDS011;11187;49.412;20.956;2022-09-17T05:44:44;21.35;;;19.75;;
22046;SDS011;11187;49.412;20.956;2022-09-17T05:47:31;21.33;;;19.75;;
22046;SDS011;11187;49.412;20.956;2022-09-17T05:50:04;22.13;;;20.63;;
22046;SDS011;11187;49.412;20.956;2022-09-17T05:52:51;21.98;;;20.38;;
22046;SDS011;11187;49.412;20.956;2022-09-17T05:55:25;20.35;;;18.85;;
22046;SDS011;11187;49.412;20.956;2022-09-17T05:58:12;22.08;;;20.42;;
22046;SDS011;11187;49.412;20.956;2022-09-17T06:00:53;21.60;;;20.15;;
22046;SDS011;11187;49.412;20.956;2022-09-17T06:03:26;21.92;;;20.23;;
22046;SDS011;11187;49.412;20.956;2022-09-17T06:06:13;21.90;;;20.15;;
22046;SDS011;11187;49.412;20.956;2022-09-17T06:08:46;21.60;;;20.05;;
22046;SDS011;11187;49.412;20.956;2022-09-17T06:11:33;22.08;;;20.38;;
22046;SDS011;11187;49.412;20.956;2022-09-17T06:14:08;20.25;;;18.85;;
22046;SDS011;11187;49.412;20.956;2022-09-17T06:16:54;20.17;;;18.58;;
22046;SDS011;11187;49.412;20.956;2022-09-17T06:19:27;18.73;;;17.33;;
22046;SDS011;11187;49.412;20.956;2022-09-17T06:22:16;19.02;;;17.55;;
22046;SDS011;11187;49.412;20.956;2022-09-17T06:24:50;20.23;;;18.83;;
22046;SDS011;11187;49.412;20.956;2022-09-17T06:27:46;18.52;;;17.23;;
22046;SDS011;11187;49.412;20.956;2022-09-17T06:30:19;19.15;;;17.73;;
22046;SDS011;11187;49.412;20.956;2022-09-17T06:33:13;17.35;;;16.15;;
22046;SDS011;11187;49.412;20.956;2022-09-17T06:35:46;18.77;;;17.38;;
22046;SDS011;11187;49.412;20.956;2022-09-17T06:38:33;17.95;;;16.65;;
22046;SDS011;11187;49.412;20.956;2022-09-17T06:41:08;19.40;;;18.10;;
22046;SDS011;11187;49.412;20.956;2022-09-17T06:44:02;19.48;;;18.08;;
22046;SDS011;11187;49.412;20.956;2022-09-17T06:46:36;19.27;;;17.77;;
22046;SDS011;11187;49.412;20.956;2022-09-17T06:49:30;18.80;;;17.20;;
22046;SDS011;11187;49.412;20.956;2022-09-17T06:52:24;16.67;;;15.38;;
22046;SDS011;11187;49.412;20.956;2022-09-17T06:54:57;18.17;;;16.58;;
22046;SDS011;11187;49.412;20.956;2022-09-17T06:57:44;20.23;;;18.70;;
22046;SDS011;11187;49.412;20.956;2022-09-17T07:00:17;18.60;;;17.20;;
22046;SDS011;11187;49.412;20.956;2022-09-17T07:03:04;18.05;;;16.75;;
22046;SDS011;11187;49.412;20.956;2022-09-17T07:05:37;18.73;;;17.42;;
22046;SDS011;11187;49.412;20.956;2022-09-17T07:08:24;21.65;;;20.02;;
22046;SDS011;11187;49.412;20.956;2022-09-17T07:10:57;20.30;;;18.70;;
22046;SDS011;11187;49.412;20.956;2022-09-17T07:13:44;19.50;;;18.13;;
22046;SDS011;11187;49.412;20.956;2022-09-17T07:16:17;19.35;;;17.95;;
22046;SDS011;11187;49.412;20.956;2022-09-17T07:19:05;18.33;;;17.10;;
22046;SDS011;11187;49.412;20.956;2022-09-17T07:21:40;20.65;;;19.35;;
22046;SDS011;11187;49.412;20.956;2022-09-17T07:24:27;18.10;;;16.75;;
22046;SDS011;11187;49.412;20.956;2022-09-17T07:27:00;19.70;;;18.15;;
22046;SDS011;11187;49.412;20.956;2022-09-17T07:29:47;18.40;;;17.20;;
22046;SDS011;11187;49.412;20.956;2022-09-17T07:32:41;17.73;;;16.58;;
22046;SDS011;11187;49.412;20.956;2022-09-17T07:35:14;17.35;;;15.93;;
22046;SDS011;11187;49.412;20.956;2022-09-17T07:38:08;16.63;;;15.57;;
22046;SDS011;11187;49.412;20.956;2022-09-17T07:41:06;17.63;;;16.52;;
22046;SDS011;11187;49.412;20.956;2022-09-17T07:44:03;17.98;;;16.77;;
22046;SDS011;11187;49.412;20.956;2022-09-17T07:46:38;17.55;;;16.15;;
22046;SDS011;11187;49.412;20.956;2022-09-17T07:49:32;20.08;;;18.77;;
22046;SDS011;11187;49.412;20.956;2022-09-17T07:52:26;21.08;;;19.77;;
22046;SDS011;11187;49.412;20.956;2022-09-17T07:55:20;17.98;;;16.75;;
22046;SDS011;11187;49.412;20.956;2022-09-17T07:57:55;19.80;;;18.50;;
22046;SDS011;11187;49.412;20.956;2022-09-17T08:00:42;19.85;;;18.55;;
22046;SDS011;11187;49.412;20.956;2022-09-17T08:03:15;19.48;;;18.17;;
22046;SDS011;11187;49.412;20.956;2022-09-17T08:06:12;17.23;;;16.23;;
22046;SDS011;11187;49.412;20.956;2022-09-17T08:08:47;19.77;;;18.58;;
22046;SDS011;11187;49.412;20.956;2022-09-17T08:11:40;20.90;;;19.45;;
22046;SDS011;11187;49.412;20.956;2022-09-17T08:14:35;18.17;;;17.08;;
22046;SDS011;11187;49.412;20.956;2022-09-17T08:17:29;17.55;;;16.45;;
22046;SDS011;11187;49.412;20.956;2022-09-17T08:20:23;20.40;;;19.10;;
22046;SDS011;11187;49.412;20.956;2022-09-17T08:22:58;19.58;;;18.38;;
22046;SDS011;11187;49.412;20.956;2022-09-17T08:25:50;19.02;;;17.77;;
22046;SDS011;11187;49.412;20.956;2022-09-17T08:28:30;14.68;;;13.57;;
22046;SDS011;11187;49.412;20.956;2022-09-17T08:31:25;17.02;;;15.93;;
22046;SDS011;11187;49.412;20.956;2022-09-17T08:34:19;17.58;;;15.75;;
22046;SDS011;11187;49.412;20.956;2022-09-17T08:36:52;18.35;;;17.13;;
22046;SDS011;11187;49.412;20.956;2022-09-17T08:39:39;16.55;;;15.25;;
22046;SDS011;11187;49.412;20.956;2022-09-17T08:42:34;17.15;;;16.15;;
22046;SDS011;11187;49.412;20.956;2022-09-17T08:45:34;14.88;;;13.77;;
22046;SDS011;11187;49.412;20.956;2022-09-17T08:48:07;14.20;;;13.20;;
22046;SDS011;11187;49.412;20.956;2022-09-17T08:51:00;16.00;;;15.00;;
22046;SDS011;11187;49.412;20.956;2022-09-17T08:53:53;15.82;;;14.82;;
22046;SDS011;11187;49.412;20.956;2022-09-17T09:00:23;15.50;;;14.60;;
22046;SDS011;11187;49.412;20.956;2022-09-17T09:03:19;15.38;;;14.38;;
22046;SDS011;11187;49.412;20.956;2022-09-17T09:06:23;15.30;;;14.35;;
22046;SDS011;11187;49.412;20.956;2022-09-17T09:09:23;16.67;;;15.68;;
22046;SDS011;11187;49.412;20.956;2022-09-17T09:12:24;15.85;;;14.95;;
22046;SDS011;11187;49.412;20.956;2022-09-17T09:16:02;16.25;;;15.15;;
22046;SDS011;11187;49.412;20.956;2022-09-17T09:21:27;15.20;;;14.20;;
22046;SDS011;11187;49.412;20.956;2022-09-17T09:24:04;16.40;;;15.30;;
22046;SDS011;11187;49.412;20.956;2022-09-17T09:30:12;17.33;;;16.10;;
22046;SDS011;11187;49.412;20.956;2022-09-17T09:33:37;16.65;;;15.57;;
22046;SDS011;11187;49.412;20.956;2022-09-17T09:36:10;17.17;;;16.08;;
22046;SDS011;11187;49.412;20.956;2022-09-17T09:39:01;14.35;;;13.38;;
22046;SDS011;11187;49.412;20.956;2022-09-17T09:45:17;16.52;;;15.10;;
22046;SDS011;11187;49.412;20.956;2022-09-17T09:54:42;16.45;;;15.25;;
22046;SDS011;11187;49.412;20.956;2022-09-17T09:57:49;15.40;;;14.27;;
22046;SDS011;11187;49.412;20.956;2022-09-17T10:00:29;14.90;;;14.00;;
22046;SDS011;11187;49.412;20.956;2022-09-17T10:03:27;15.63;;;14.63;;
22046;SDS011;11187;49.412;20.956;2022-09-17T10:06:05;15.00;;;14.00;;
22046;SDS011;11187;49.412;20.956;2022-09-17T10:11:29;16.10;;;15.10;;
22046;SDS011;11187;49.412;20.956;2022-09-17T10:14:22;16.33;;;15.32;;
22046;SDS011;11187;49.412;20.956;2022-09-17T10:20:16;17.08;;;16.08;;
22046;SDS011;11187;49.412;20.956;2022-09-17T10:23:10;15.88;;;14.82;;
22046;SDS011;11187;49.412;20.956;2022-09-17T10:25:44;16.23;;;15.23;;
22046;SDS011;11187;49.412;20.956;2022-09-17T10:28:46;17.30;;;16.20;;
22046;SDS011;11187;49.412;20.956;2022-09-17T10:31:23;17.23;;;16.13;;
22046;SDS011;11187;49.412;20.956;2022-09-17T10:34:23;15.50;;;14.60;;
22046;SDS011;11187;49.412;20.956;2022-09-17T10:37:30;18.15;;;16.90;;
22046;SDS011;11187;49.412;20.956;2022-09-17T10:43:27;16.85;;;15.75;;
22046;SDS011;11187;49.412;20.956;2022-09-17T10:45:59;17.05;;;16.05;;
22046;SDS011;11187;49.412;20.956;2022-09-17T10:49:10;17.13;;;16.08;;
22046;SDS011;11187;49.412;20.956;2022-09-17T10:52:03;16.65;;;15.52;;
22046;SDS011;11187;49.412;20.956;2022-09-17T11:04:25;16.98;;;15.85;;
22046;SDS011;11187;49.412;20.956;2022-09-17T11:07:30;16.08;;;15.10;;
22046;SDS011;11187;49.412;20.956;2022-09-17T11:10:29;16.00;;;15.00;;
22046;SDS011;11187;49.412;20.956;2022-09-17T11:13:48;15.85;;;14.82;;
22046;SDS011;11187;49.412;20.956;2022-09-17T11:16:37;15.48;;;14.30;;
22046;SDS011;11187;49.412;20.956;2022-09-17T11:20:40;14.77;;;13.77;;
22046;SDS011;11187;49.412;20.956;2022-09-17T11:23:14;15.40;;;14.43;;
22046;SDS011;11187;49.412;20.956;2022-09-17T11:33:04;16.73;;;15.73;;
22046;SDS011;11187;49.412;20.956;2022-09-17T11:36:01;15.60;;;14.60;;
22046;SDS011;11187;49.412;20.956;2022-09-17T11:39:11;15.35;;;14.35;;
22046;SDS011;11187;49.412;20.956;2022-09-17T11:42:11;16.55;;;15.50;;
22046;SDS011;11187;49.412;20.956;2022-09-17T11:45:12;13.98;;;12.77;;
22046;SDS011;11187;49.412;20.956;2022-09-17T11:51:06;16.55;;;15.45;;
22046;SDS011;11187;49.412;20.956;2022-09-17T11:53:41;15.52;;;14.48;;
22046;SDS011;11187;49.412;20.956;2022-09-17T11:56:39;15.10;;;14.20;;
22046;SDS011;11187;49.412;20.956;2022-09-17T12:00:00;17.17;;;15.88;;
22046;SDS011;11187;49.412;20.956;2022-09-17T12:08:38;17.70;;;16.50;;
22046;SDS011;11187;49.412;20.956;2022-09-17T12:17:24;17.00;;;15.90;;
22046;SDS011;11187;49.412;20.956;2022-09-17T12:20:34;16.35;;;14.98;;
22046;SDS011;11187;49.412;20.956;2022-09-17T12:23:13;16.42;;;15.32;;
22046;SDS011;11187;49.412;20.956;2022-09-17T12:26:28;16.27;;;15.20;;
22046;SDS011;11187;49.412;20.956;2022-09-17T12:48:00;16.48;;;15.27;;
22046;SDS011;11187;49.412;20.956;2022-09-17T12:57:42;16.58;;;15.32;;
22046;SDS011;11187;49.412;20.956;2022-09-17T13:00:46;15.95;;;14.75;;
22046;SDS011;11187;49.412;20.956;2022-09-17T13:03:29;17.05;;;14.98;;
22046;SDS011;11187;49.412;20.956;2022-09-17T13:06:35;16.25;;;14.75;;
22046;SDS011;11187;49.412;20.956;2022-09-17T13:12:46;20.77;;;19.27;;
22046;SDS011;11187;49.412;20.956;2022-09-17T13:18:22;18.33;;;17.13;;
22046;SDS011;11187;49.412;20.956;2022-09-17T13:21:09;18.50;;;17.20;;
22046;SDS011;11187;49.412;20.956;2022-09-17T13:23:59;17.02;;;15.90;;
22046;SDS011;11187;49.412;20.956;2022-09-17T13:26:35;18.15;;;17.05;;
22046;SDS011;11187;49.412;20.956;2022-09-17T13:37:58;17.48;;;15.90;;
22046;SDS011;11187;49.412;20.956;2022-09-17T13:40:45;16.98;;;15.70;;
22046;SDS011;11187;49.412;20.956;2022-09-17T13:43:19;17.67;;;16.38;;
22046;SDS011;11187;49.412;20.956;2022-09-17T13:46:19;17.00;;;15.65;;
22046;SDS011;11187;49.412;20.956;2022-09-17T13:49:17;16.33;;;15.10;;
22046;SDS011;11187;49.412;20.956;2022-09-17T13:51:51;17.70;;;16.50;;
22046;SDS011;11187;49.412;20.956;2022-09-17T13:54:50;14.90;;;13.70;;
22046;SDS011;11187;49.412;20.956;2022-09-17T13:57:24;17.75;;;16.55;;
22046;SDS011;11187;49.412;20.956;2022-09-17T14:00:56;17.60;;;16.40;;
22046;SDS011;11187;49.412;20.956;2022-09-17T14:08:47;15.50;;;14.27;;
22046;SDS011;11187;49.412;20.956;2022-09-17T14:11:36;16.25;;;15.05;;
22046;SDS011;11187;49.412;20.956;2022-09-17T14:16:59;17.50;;;15.93;;
22046;SDS011;11187;49.412;20.956;2022-09-17T14:19:48;18.08;;;16.88;;
22046;SDS011;11187;49.412;20.956;2022-09-17T14:22:36;17.10;;;15.73;;
22046;SDS011;11187;49.412;20.956;2022-09-17T14:25:16;18.45;;;17.15;;
22046;SDS011;11187;49.412;20.956;2022-09-17T14:31:17;16.48;;;15.18;;
22046;SDS011;11187;49.412;20.956;2022-09-17T14:34:20;16.13;;;14.80;;
22046;SDS011;11187;49.412;20.956;2022-09-17T14:37:16;17.15;;;15.93;;
22046;SDS011;11187;49.412;20.956;2022-09-17T14:39:53;15.18;;;13.93;;
22046;SDS011;11187;49.412;20.956;2022-09-17T14:42:39;16.50;;;15.13;;
22046;SDS011;11187;49.412;20.956;2022-09-17T14:45:15;16.83;;;15.68;;
22046;SDS011;11187;49.412;20.956;2022-09-17T14:54:15;14.63;;;13.63;;
22046;SDS011;11187;49.412;20.956;2022-09-17T14:57:19;13.48;;;12.48;;
22046;SDS011;11187;49.412;20.956;2022-09-17T14:59:59;16.17;;;15.07;;
22046;SDS011;11187;49.412;20.956;2022-09-17T15:02:54;16.77;;;15.65;;
22046;SDS011;11187;49.412;20.956;2022-09-17T15:05:48;14.80;;;13.60;;
22046;SDS011;11187;49.412;20.956;2022-09-17T15:08:43;17.77;;;16.38;;
22046;SDS011;11187;49.412;20.956;2022-09-17T15:11:39;16.90;;;15.70;;
22046;SDS011;11187;49.412;20.956;2022-09-17T15:14:47;17.45;;;16.25;;
22046;SDS011;11187;49.412;20.956;2022-09-17T15:17:27;16.85;;;15.40;;
22046;SDS011;11187;49.412;20.956;2022-09-17T15:20:02;16.40;;;15.10;;
22046;SDS011;11187;49.412;20.956;2022-09-17T15:22:53;16.00;;;14.80;;
22046;SDS011;11187;49.412;20.956;2022-09-17T15:25:33;14.68;;;13.60;;
22046;SDS011;11187;49.412;20.956;2022-09-17T15:28:33;14.55;;;13.45;;
22046;SDS011;11187;49.412;20.956;2022-09-17T15:31:18;15.15;;;13.88;;
22046;SDS011;11187;49.412;20.956;2022-09-17T15:34:05;17.80;;;16.15;;
22046;SDS011;11187;49.412;20.956;2022-09-17T15:37:04;16.40;;;14.95;;
22046;SDS011;11187;49.412;20.956;2022-09-17T15:39:49;15.35;;;14.15;;
22046;SDS011;11187;49.412;20.956;2022-09-17T15:42:28;17.35;;;16.05;;
22046;SDS011;11187;49.412;20.956;2022-09-17T15:45:17;18.30;;;16.90;;
22046;SDS011;11187;49.412;20.956;2022-09-17T15:47:58;13.63;;;12.60;;
22046;SDS011;11187;49.412;20.956;2022-09-17T15:50:50;15.32;;;14.05;;
22046;SDS011;11187;49.412;20.956;2022-09-17T15:53:26;15.00;;;13.80;;
22046;SDS011;11187;49.412;20.956;2022-09-17T15:56:15;14.60;;;13.35;;
22046;SDS011;11187;49.412;20.956;2022-09-17T15:58:57;17.00;;;15.50;;
22046;SDS011;11187;49.412;20.956;2022-09-17T16:01:54;19.50;;;17.77;;
22046;SDS011;11187;49.412;20.956;2022-09-17T16:04:33;15.80;;;14.60;;
22046;SDS011;11187;49.412;20.956;2022-09-17T16:07:28;14.30;;;13.30;;
22046;SDS011;11187;49.412;20.956;2022-09-17T16:10:02;17.00;;;15.50;;
22046;SDS011;11187;49.412;20.956;2022-09-17T16:12:52;17.65;;;15.95;;
22046;SDS011;11187;49.412;20.956;2022-09-17T16:15:28;17.00;;;15.60;;
22046;SDS011;11187;49.412;20.956;2022-09-17T16:18:21;15.88;;;14.27;;
22046;SDS011;11187;49.412;20.956;2022-09-17T16:20:55;18.13;;;16.67;;
22046;SDS011;11187;49.412;20.956;2022-09-17T16:23:49;17.20;;;15.93;;
22046;SDS011;11187;49.412;20.956;2022-09-17T16:26:27;15.65;;;14.25;;
22046;SDS011;11187;49.412;20.956;2022-09-17T16:29:25;16.75;;;15.25;;
22046;SDS011;11187;49.412;20.956;2022-09-17T16:31:59;16.35;;;15.15;;
22046;SDS011;11187;49.412;20.956;2022-09-17T16:34:45;14.98;;;13.70;;
22046;SDS011;11187;49.412;20.956;2022-09-17T16:37:19;16.67;;;15.23;;
22046;SDS011;11187;49.412;20.956;2022-09-17T16:40:07;17.50;;;15.98;;
22046;SDS011;11187;49.412;20.956;2022-09-17T16:42:43;17.08;;;15.52;;
22046;SDS011;11187;49.412;20.956;2022-09-17T16:45:29;15.13;;;13.93;;
22046;SDS011;11187;49.412;20.956;2022-09-17T16:48:04;13.90;;;12.80;;
22046;SDS011;11187;49.412;20.956;2022-09-17T16:50:59;16.38;;;14.85;;
22046;SDS011;11187;49.412;20.956;2022-09-17T16:53:53;16.10;;;14.70;;
22046;SDS011;11187;49.412;20.956;2022-09-17T16:56:29;15.45;;;13.82;;
22046;SDS011;11187;49.412;20.956;2022-09-17T16:59:15;16.67;;;15.27;;
22046;SDS011;11187;49.412;20.956;2022-09-17T17:01:49;14.73;;;13.63;;
22046;SDS011;11187;49.412;20.956;2022-09-17T17:04:35;14.80;;;13.50;;
22046;SDS011;11187;49.412;20.956;2022-09-17T17:07:09;15.90;;;14.65;;
22046;SDS011;11187;49.412;20.956;2022-09-17T17:09:55;16.85;;;15.57;;
22046;SDS011;11187;49.412;20.956;2022-09-17T17:12:31;16.70;;;15.43;;
22046;SDS011;11187;49.412;20.956;2022-09-17T17:15:17;16.65;;;15.27;;
22046;SDS011;11187;49.412;20.956;2022-09-17T17:17:51;16.98;;;15.48;;
22046;SDS011;11187;49.412;20.956;2022-09-17T17:20:38;16.20;;;14.95;;
22046;SDS011;11187;49.412;20.956;2022-09-17T17:23:12;16.23;;;14.90;;
22046;SDS011;11187;49.412;20.956;2022-09-17T17:25:58;16.15;;;14.85;;
22046;SDS011;11187;49.412;20.956;2022-09-17T17:28:32;15.73;;;14.30;;
22046;SDS011;11187;49.412;20.956;2022-09-17T17:31:26;17.88;;;16.35;;
22046;SDS011;11187;49.412;20.956;2022-09-17T17:34:22;17.25;;;15.77;;
22046;SDS011;11187;49.412;20.956;2022-09-17T17:36:56;15.80;;;14.35;;
22046;SDS011;11187;49.412;20.956;2022-09-17T17:39:47;15.00;;;13.80;;
22046;SDS011;11187;49.412;20.956;2022-09-17T17:42:21;15.55;;;14.25;;
22046;SDS011;11187;49.412;20.956;2022-09-17T17:45:20;16.10;;;14.85;;
22046;SDS011;11187;49.412;20.956;2022-09-17T17:48:14;16.73;;;15.23;;
22046;SDS011;11187;49.412;20.956;2022-09-17T17:50:48;15.43;;;14.23;;
22046;SDS011;11187;49.412;20.956;2022-09-17T17:53:35;20.30;;;18.60;;
22046;SDS011;11187;49.412;20.956;2022-09-17T17:56:10;17.58;;;16.20;;
22046;SDS011;11187;49.412;20.956;2022-09-17T17:59:05;17.25;;;15.60;;
22046;SDS011;11187;49.412;20.956;2022-09-17T18:01:59;17.25;;;16.05;;
22046;SDS011;11187;49.412;20.956;2022-09-17T18:04:33;17.40;;;15.80;;
22046;SDS011;11187;49.412;20.956;2022-09-17T18:07:27;16.98;;;15.57;;
22046;SDS011;11187;49.412;20.956;2022-09-17T18:10:21;16.73;;;15.32;;
22046;SDS011;11187;49.412;20.956;2022-09-17T18:12:56;16.60;;;15.23;;
22046;SDS011;11187;49.412;20.956;2022-09-17T18:15:49;19.77;;;18.15;;
22046;SDS011;11187;49.412;20.956;2022-09-17T18:18:32;19.13;;;17.48;;
22046;SDS011;11187;49.412;20.956;2022-09-17T18:21:27;19.05;;;17.35;;
22046;SDS011;11187;49.412;20.956;2022-09-17T18:24:21;18.25;;;16.63;;
22046;SDS011;11187;49.412;20.956;2022-09-17T18:26:55;18.38;;;16.00;;
22046;SDS011;11187;49.412;20.956;2022-09-17T18:29:41;19.95;;;18.17;;
22046;SDS011;11187;49.412;20.956;2022-09-17T18:32:15;19.45;;;17.92;;
22046;SDS011;11187;49.412;20.956;2022-09-17T18:35:01;20.80;;;19.00;;
22046;SDS011;11187;49.412;20.956;2022-09-17T18:37:35;19.42;;;17.75;;
22046;SDS011;11187;49.412;20.956;2022-09-17T18:40:21;17.25;;;15.65;;
22046;SDS011;11187;49.412;20.956;2022-09-17T18:42:55;19.88;;;18.27;;
22046;SDS011;11187;49.412;20.956;2022-09-17T18:45:41;20.38;;;18.88;;